Time;durP1;ratioP1;P1;durP2;ratioP2;P2;SDS_P1;SDS_P2;PMS_P1;PMS_P2;Temp;Humidity;BMP_temperature;BMP_pressure;BME280_temperature;BME280_humidity;BME280_pressure;Samples;Min_cycle;Max_cycle;Signal;HPM_P1;HPM_P2
2022/07/01 00:01:47;;;;;;;17.73;16.00;;;22.60;99.90;;;-141.84;75.98;19941.88;5049499;28;20241;-58
2022/07/01 00:04:16;;;;;;;16.33;14.73;;;22.50;99.90;;;-141.84;76.21;19901.22;5050022;28;20192;-58
2022/07/01 00:06:44;;;;;;;16.83;15.23;;;22.50;99.90;;;-141.84;76.51;19917.50;5070076;28;20232;-60
2022/07/01 00:09:12;;;;;;;17.00;15.40;;;22.50;99.90;;;-141.84;76.57;19952.03;5069264;28;20339;-58
2022/07/01 00:11:42;;;;;;;17.20;15.60;;;22.40;99.90;;;-141.84;76.78;19903.25;5069337;28;20411;-59
2022/07/01 00:14:10;;;;;;;16.90;15.10;;;22.40;99.90;;;-141.84;76.93;19895.13;5048671;28;20235;-58
2022/07/01 00:16:38;;;;;;;17.42;15.82;;;22.40;99.90;;;-141.84;76.68;19925.63;5049350;28;20327;-58
2022/07/01 00:19:06;;;;;;;16.27;14.43;;;22.30;99.90;;;-141.84;77.32;19887.00;5050313;28;20648;-58
2022/07/01 00:21:36;;;;;;;16.42;14.85;;;22.30;99.90;;;-141.84;77.68;19903.25;5049140;28;20338;-56
2022/07/01 00:24:05;;;;;;;17.45;15.77;;;22.30;99.90;;;-141.84;77.83;19864.66;5049387;28;20232;-59
2022/07/01 00:26:33;;;;;;;17.38;15.77;;;22.20;99.90;;;-141.84;77.68;19874.81;5049240;28;20229;-58
2022/07/01 00:29:02;;;;;;;16.77;15.05;;;22.20;99.90;;;-141.84;77.50;19909.34;5049608;28;20308;-59
2022/07/01 00:31:30;;;;;;;16.63;14.95;;;22.20;99.90;;;-141.84;77.64;19880.91;5057697;28;20197;-58
2022/07/01 00:33:58;;;;;;;16.38;14.82;;;22.20;99.90;;;-141.84;78.13;19887.00;5070014;28;20227;-60
2022/07/01 00:36:26;;;;;;;16.05;14.55;;;22.20;99.90;;;-141.84;78.55;19850.41;5069158;28;20237;-58
2022/07/01 00:38:58;;;;;;;15.45;14.05;;;22.10;99.90;;;-141.84;78.60;19842.28;5069307;28;20263;-59
2022/07/01 00:41:27;;;;;;;16.88;15.30;;;22.10;99.90;;;-141.84;78.06;19870.75;5069275;28;20256;-59
2022/07/01 00:43:55;;;;;;;17.08;15.38;;;22.20;99.90;;;-141.84;78.22;19858.56;5069284;28;20220;-58
2022/07/01 00:46:26;;;;;;;17.73;15.75;;;22.10;99.90;;;-141.84;78.65;19828.06;5060665;28;20267;-58
2022/07/01 00:48:58;;;;;;;16.48;14.88;;;22.10;99.90;;;-141.84;78.84;19840.25;5049792;28;20174;-59
2022/07/01 00:51:27;;;;;;;16.38;14.65;;;22.10;99.90;;;-141.84;78.94;19836.19;5048869;28;20225;-58
2022/07/01 00:53:57;;;;;;;15.65;14.10;;;22.00;99.90;;;-141.84;78.99;19836.19;5049148;28;20648;-59
2022/07/01 00:56:26;;;;;;;16.70;15.10;;;22.00;99.90;;;-141.84;78.87;19842.28;5048942;28;20239;-58
2022/07/01 00:58:56;;;;;;;15.27;13.77;;;22.00;99.90;;;-141.84;78.38;19909.34;5048950;28;20249;-58
2022/07/01 01:01:25;;;;;;;17.02;14.88;;;22.00;99.90;;;-141.84;78.59;19830.09;5056353;28;20283;-60
2022/07/01 01:03:54;;;;;;;15.88;14.25;;;22.00;99.90;;;-141.84;78.63;19893.09;5069698;28;20278;-59
2022/07/01 01:06:22;;;;;;;16.55;14.82;;;22.00;99.90;;;-141.84;79.17;19826.03;5068665;28;20264;-58
2022/07/01 01:08:51;;;;;;;15.32;13.73;;;22.00;99.90;;;-141.84;78.99;19821.97;5072995;28;20216;-60
2022/07/01 01:11:20;;;;;;;15.82;14.43;;;21.90;99.90;;;-141.84;79.26;19813.84;5068819;28;20304;-60
2022/07/01 01:13:48;;;;;;;15.27;13.80;;;21.90;99.90;;;-141.84;79.18;19830.09;5068632;28;20545;-59
2022/07/01 01:16:18;;;;;;;15.82;14.35;;;21.90;99.90;;;-141.84;79.72;19850.41;5068851;28;20291;-58
2022/07/01 01:18:49;;;;;;;15.18;13.80;;;21.90;99.90;;;-141.84;79.42;19799.63;5069338;28;20205;-60
2022/07/01 01:21:19;;;;;;;16.13;14.52;;;21.90;99.90;;;-141.84;79.65;19817.91;5068881;28;20260;-60
2022/07/01 01:23:47;;;;;;;16.38;14.77;;;21.80;99.90;;;-141.84;79.54;19805.72;5068582;28;20224;-58
2022/07/01 01:26:23;;;;;;;16.40;14.70;;;21.80;99.90;;;-141.84;79.81;19779.28;5070811;28;20239;-59
2022/07/01 01:28:53;;;;;;;16.88;14.80;;;21.80;99.90;;;-141.84;80.48;19803.69;5072470;28;20308;-58
2022/07/01 01:31:30;;;;;;;15.85;14.25;;;21.70;99.90;;;-141.84;80.07;19801.66;5071970;28;20656;-59
2022/07/01 01:34:00;;;;;;;15.75;14.20;;;21.70;99.90;;;-141.84;80.79;19773.19;5073061;28;20200;-57
2022/07/01 01:36:29;;;;;;;15.88;14.27;;;21.70;99.90;;;-141.84;81.19;19744.75;5072125;28;20674;-60
2022/07/01 01:38:59;;;;;;;15.40;13.90;;;21.60;99.90;;;-141.84;81.40;19752.88;5071797;28;20256;-58
2022/07/01 01:41:27;;;;;;;16.42;14.80;;;21.60;99.90;;;-141.84;81.13;19758.97;5072529;28;20224;-58
2022/07/01 01:43:55;;;;;;;15.80;14.20;;;21.60;99.90;;;-141.84;80.81;19781.31;5072147;28;20319;-58
2022/07/01 01:46:23;;;;;;;14.63;13.23;;;21.60;99.90;;;-141.84;80.70;19744.75;5063832;28;20292;-58
2022/07/01 01:48:52;;;;;;;15.55;14.05;;;21.60;99.90;;;-141.84;80.39;19775.22;5052658;28;20193;-59
2022/07/01 01:51:20;;;;;;;15.88;14.38;;;21.70;99.90;;;-141.84;80.05;19805.72;5052070;28;20231;-59
2022/07/01 01:53:49;;;;;;;15.90;14.18;;;21.70;99.90;;;-141.84;79.93;19819.94;5051843;28;20261;-59
2022/07/01 01:56:18;;;;;;;16.10;14.43;;;21.80;99.90;;;-141.84;79.45;19819.94;5051844;28;20316;-58
2022/07/01 01:58:46;;;;;;;14.48;13.10;;;21.80;99.90;;;-141.84;79.65;19791.47;5068649;28;20789;-59
2022/07/01 02:01:15;;;;;;;15.27;13.45;;;21.90;99.90;;;-141.84;78.47;19834.16;5071599;28;20235;-60
2022/07/01 02:03:45;;;;;;;15.75;14.10;;;22.00;99.90;;;-141.84;78.73;19842.28;5072324;28;20211;-60
2022/07/01 02:06:16;;;;;;;14.68;13.25;;;22.00;99.90;;;-141.84;78.79;19817.91;5088484;28;20662;-59
2022/07/01 02:08:44;;;;;;;14.65;13.18;;;22.00;99.90;;;-141.84;78.35;19836.19;5089366;28;20223;-57
2022/07/01 02:11:14;;;;;;;15.65;13.57;;;22.00;99.90;;;-141.84;78.63;19819.94;5071617;28;20224;-59
2022/07/01 02:13:44;;;;;;;15.05;13.43;;;22.00;99.90;;;-141.84;78.61;19807.75;5071468;28;20254;-59
2022/07/01 02:16:12;;;;;;;14.63;13.32;;;22.00;99.90;;;-141.84;78.20;19842.28;5072213;28;20308;-58
2022/07/01 02:18:40;;;;;;;15.25;13.90;;;22.00;99.90;;;-141.84;78.20;19850.41;5071640;28;20228;-59
2022/07/01 02:21:09;;;;;;;15.35;13.77;;;22.00;99.90;;;-141.84;78.52;19832.13;5071460;28;20231;-59
2022/07/01 02:23:38;;;;;;;14.57;13.15;;;22.00;99.90;;;-141.84;78.66;19821.97;5071374;28;20228;-58
2022/07/01 02:26:06;;;;;;;14.95;13.55;;;22.00;99.90;;;-141.84;78.35;19832.13;5071505;28;20224;-58
2022/07/01 02:28:36;;;;;;;14.65;13.30;;;22.00;99.90;;;-141.84;78.49;19844.31;5071078;28;20795;-59
2022/07/01 02:31:04;;;;;;;14.43;13.15;;;22.00;99.90;;;-141.84;78.71;19836.19;5071581;28;20287;-58
2022/07/01 02:33:32;;;;;;;14.45;13.13;;;21.90;99.90;;;-141.84;79.19;19799.63;5071091;28;20236;-60
2022/07/01 02:36:00;;;;;;;14.18;12.88;;;21.90;99.90;;;-141.84;79.66;19805.72;5071064;28;20438;-60
2022/07/01 02:38:28;;;;;;;14.23;12.93;;;21.90;99.90;;;-141.84;79.07;19821.97;5069987;28;20319;-57
2022/07/01 02:40:57;;;;;;;14.35;13.02;;;21.90;99.90;;;-141.84;79.36;19811.81;5071041;28;20311;-59
2022/07/01 02:43:25;;;;;;;14.10;12.77;;;21.90;99.90;;;-141.84;79.93;19765.06;5070764;28;20771;-59
2022/07/01 02:45:54;;;;;;;14.65;12.73;;;21.80;99.90;;;-141.84;80.07;19763.03;5067419;28;20276;-59
2022/07/01 02:48:22;;;;;;;14.70;13.23;;;21.80;99.90;;;-141.84;79.90;19748.81;5050706;28;20631;-59
2022/07/01 02:50:50;;;;;;;13.55;12.30;;;21.80;99.90;;;-141.84;80.53;19761.00;5051025;28;20228;-58
2022/07/01 02:53:19;;;;;;;15.13;13.73;;;21.70;99.90;;;-141.84;80.36;19777.25;5053555;28;20259;-59
2022/07/01 02:55:47;;;;;;;15.60;13.60;;;21.60;99.90;;;-141.84;80.48;19795.53;5070676;28;20640;-59
2022/07/01 02:58:15;;;;;;;14.20;12.70;;;21.60;99.90;;;-141.84;80.18;19758.97;5070605;28;20292;-59
2022/07/01 03:00:43;;;;;;;13.60;12.13;;;21.60;99.90;;;-141.84;80.34;19797.59;5073119;28;20220;-59
2022/07/01 03:03:13;;;;;;;12.98;11.63;;;21.70;99.90;;;-141.84;79.51;19817.91;5090710;28;20342;-58
2022/07/01 03:05:41;;;;;;;12.68;11.43;;;21.90;99.90;;;-141.84;79.01;19821.97;5091017;28;20314;-59
2022/07/01 03:08:09;;;;;;;12.73;11.20;;;21.80;99.90;;;-141.84;78.45;19852.44;5090898;28;20295;-59
2022/07/01 03:10:37;;;;;;;15.68;12.25;;;21.90;99.90;;;-141.84;77.21;19846.34;5072692;28;20250;-60
2022/07/01 03:13:06;;;;;;;12.82;11.52;;;22.00;99.90;;;-141.84;77.32;19860.59;5070714;28;20287;-58
2022/07/01 03:15:34;;;;;;;14.68;12.18;;;22.10;99.90;;;-141.84;74.73;19921.56;5069768;28;20224;-59
2022/07/01 03:18:02;;;;;;;13.90;11.23;;;22.20;99.90;;;-141.84;74.51;19899.19;5070277;28;20290;-59
2022/07/01 03:20:31;;;;;;;10.88;9.77;;;22.20;99.90;;;-141.84;73.62;19895.13;5070135;28;20239;-59
2022/07/01 03:22:59;;;;;;;11.43;10.15;;;22.20;99.90;;;-141.84;72.71;19911.41;5070085;28;20778;-57
2022/07/01 03:25:27;;;;;;;10.60;9.50;;;22.20;99.90;;;-141.84;73.58;19889.03;5070213;28;20292;-59
2022/07/01 03:27:56;;;;;;;12.88;10.73;;;22.10;99.90;;;-141.84;73.73;19878.88;5070847;28;20295;-59
2022/07/01 03:30:24;;;;;;;10.55;9.55;;;22.00;99.90;;;-141.84;74.26;19868.72;5069510;28;20751;-59
2022/07/01 03:32:52;;;;;;;11.82;10.48;;;22.00;99.90;;;-141.84;73.66;19882.94;5050198;28;20233;-60
2022/07/01 03:38:09;;;;;;;12.65;10.07;;;21.90;99.90;;;-141.84;74.74;19870.75;5044738;28;20231;-58
2022/07/01 03:40:39;;;;;;;12.38;10.23;;;21.90;99.90;;;-141.84;74.92;19874.81;5067757;28;20235;-60
2022/07/01 03:43:07;;;;;;;12.13;10.50;;;21.80;99.90;;;-141.84;74.79;19887.00;5070572;28;20201;-59
2022/07/01 03:45:36;;;;;;;10.90;9.85;;;21.80;99.90;;;-141.84;75.33;19821.97;5068518;28;20232;-59
2022/07/01 03:48:05;;;;;;;12.10;10.90;;;21.80;99.90;;;-141.84;75.40;19830.09;5049667;28;20244;-58
2022/07/01 03:50:33;;;;;;;11.65;10.55;;;21.80;99.90;;;-141.84;76.21;19840.25;5060609;28;20220;-58
2022/07/01 03:55:48;;;;;;;15.80;13.15;;;21.80;99.90;;;-141.84;76.93;19836.19;5069758;28;20224;-59
2022/07/01 03:58:16;;;;;;;13.52;12.18;;;21.80;99.90;;;-141.84;77.69;19830.09;5082959;28;20295;-58
2022/07/01 04:00:45;;;;;;;14.43;12.52;;;21.90;99.90;;;-141.84;77.42;19868.72;5089787;28;20220;-59
2022/07/01 04:03:13;;;;;;;13.27;11.77;;;21.80;99.90;;;-141.84;76.75;19850.41;5089650;28;20234;-57
2022/07/01 04:05:42;;;;;;;13.57;12.30;;;21.90;99.90;;;-141.84;76.60;19866.69;5089717;28;20259;-59
2022/07/01 04:08:11;;;;;;;13.77;12.40;;;21.90;99.90;;;-141.84;75.37;19913.44;5089914;28;20224;-58
2022/07/01 04:10:41;;;;;;;15.07;11.45;;;22.00;99.90;;;-141.84;75.43;19872.78;5071204;28;20251;-59
2022/07/01 04:13:11;;;;;;;13.55;12.25;;;22.00;99.90;;;-141.84;75.18;19858.56;5069894;28;20209;-59
2022/07/01 04:16:00;;;;;;;13.80;12.50;;;22.00;99.90;;;-141.84;74.04;19903.25;5069349;28;20288;-58
2022/07/01 04:18:30;;;;;;;14.05;12.65;;;22.10;99.90;;;-141.84;73.96;19907.31;5069295;28;20230;-59
2022/07/01 04:23:45;;;;;;;14.23;12.70;;;22.30;99.90;;;-141.84;71.25;19978.47;5069747;28;20315;-58
2022/07/01 04:26:13;;;;;;;14.15;12.85;;;22.40;99.90;;;-141.84;71.05;19976.44;5069599;28;20477;-59
2022/07/01 04:29:04;;;;;;;13.20;11.90;;;22.50;99.90;;;-141.84;72.71;19952.03;5069603;28;20220;-60
2022/07/01 04:31:32;;;;;;;14.82;13.35;;;22.50;99.90;;;-141.84;72.71;19990.66;5069171;28;20665;-58
2022/07/01 04:34:01;;;;;;;15.27;12.98;;;22.50;99.90;;;-141.84;71.43;19990.66;5070123;28;20637;-58
2022/07/01 04:36:29;;;;;;;15.98;13.90;;;22.50;99.90;;;-141.84;71.10;19984.56;5069237;28;20694;-58
2022/07/01 04:38:57;;;;;;;14.70;13.13;;;22.50;99.90;;;-141.84;71.08;19980.50;5069379;28;20311;-59
2022/07/01 04:44:12;;;;;;;15.20;13.57;;;22.50;99.90;;;-141.84;70.85;20029.28;5069029;28;20726;-58
2022/07/01 04:46:40;;;;;;;15.32;12.80;;;22.70;99.90;;;-141.84;70.11;20071.97;5068377;28;20299;-58
2022/07/01 04:49:08;;;;;;;12.52;11.38;;;22.80;99.90;;;-141.84;70.75;20031.31;5070244;28;20505;-58
2022/07/01 04:51:36;;;;;;;15.27;12.95;;;22.80;99.90;;;-141.84;70.15;20047.56;5068890;28;20220;-58
2022/07/01 04:54:06;;;;;;;15.70;14.13;;;22.70;99.90;;;-141.84;70.75;20023.19;5078618;28;20223;-59
2022/07/01 04:56:36;;;;;;;14.75;13.48;;;22.70;99.90;;;-141.84;71.90;19966.28;5089296;28;20240;-57
2022/07/01 04:59:12;;;;;;;14.43;12.60;;;22.50;99.90;;;-141.84;73.13;19915.47;5089540;28;20249;-57
2022/07/01 05:01:42;;;;;;;15.75;14.25;;;22.30;99.90;;;-141.84;73.69;19909.34;5091839;28;20703;-59
2022/07/01 05:04:11;;;;;;;15.75;14.27;;;22.10;99.90;;;-141.84;72.92;19960.16;5093785;28;20200;-58
2022/07/01 05:06:39;;;;;;;16.55;14.90;;;22.00;99.90;;;-141.84;73.10;19915.47;5093156;28;20298;-59
2022/07/01 05:09:08;;;;;;;15.63;14.10;;;22.00;99.90;;;-141.84;73.22;19911.41;5087522;28;20678;-59
2022/07/01 05:11:36;;;;;;;16.73;15.20;;;22.00;99.90;;;-141.84;72.75;19915.47;5072558;28;20319;-58
2022/07/01 05:14:04;;;;;;;16.38;14.73;;;21.90;99.90;;;-141.84;73.36;19891.06;5072686;28;20243;-59
2022/07/01 05:16:34;;;;;;;18.35;16.70;;;21.70;99.90;;;-141.84;72.80;19893.09;5073309;28;20319;-58
2022/07/01 05:21:59;;;;;;;20.10;17.98;;;21.40;99.90;;;-141.84;77.99;19813.84;5073827;28;20209;-59
2022/07/01 05:24:31;;;;;;;25.55;20.35;;;21.20;99.90;;;-141.84;84.05;19730.50;5073308;28;20224;-58
2022/07/01 05:27:01;;;;;;;21.67;19.58;;;21.00;99.90;;;-141.84;85.58;19657.34;5073307;28;20221;-57
2022/07/01 05:29:30;;;;;;;23.05;20.77;;;20.80;99.90;;;-141.84;88.38;19586.22;5073423;28;20236;-59
2022/07/01 05:31:59;;;;;;;24.35;22.05;;;20.60;99.90;;;-141.84;88.66;19586.22;5073210;28;20227;-58
2022/07/01 05:34:27;;;;;;;22.60;20.45;;;20.40;99.90;;;-141.84;90.63;19596.38;5073378;28;20235;-58
2022/07/01 05:36:55;;;;;;;24.15;21.70;;;20.30;99.90;;;-141.84;90.24;19557.78;5073788;28;20572;-59
2022/07/01 05:39:25;;;;;;;24.38;21.83;;;20.20;99.90;;;-141.84;89.61;19531.34;5072865;28;20582;-59
2022/07/01 05:41:53;;;;;;;24.88;22.38;;;20.10;99.90;;;-141.84;91.53;19490.72;5072904;28;20256;-59
2022/07/01 05:44:21;;;;;;;23.83;21.52;;;20.00;99.90;;;-141.84;89.35;19525.25;5073005;28;20220;-59
2022/07/01 05:46:49;;;;;;;25.10;21.70;;;20.00;99.90;;;-141.84;90.39;19513.06;5071812;28;20220;-58
2022/07/01 05:49:19;;;;;;;23.17;20.98;;;19.80;99.90;;;-141.84;91.58;19496.81;5073879;28;20295;-58
2022/07/01 05:51:47;;;;;;;23.65;20.95;;;19.70;99.90;;;-141.84;89.95;19464.28;5093836;28;20200;-59
2022/07/01 05:54:15;;;;;;;23.38;20.95;;;19.60;99.90;;;-141.84;90.08;19478.50;5093203;28;20220;-58
2022/07/01 05:56:43;;;;;;;23.55;21.20;;;19.60;99.90;;;-141.84;89.85;19452.09;5093044;28;20293;-60
2022/07/01 05:59:12;;;;;;;22.52;20.38;;;19.50;99.90;;;-141.84;89.39;19509.00;5092731;28;20699;-59
2022/07/01 06:01:40;;;;;;;21.63;19.52;;;19.60;99.90;;;-141.84;88.11;19500.88;5092744;28;20310;-59
2022/07/01 06:04:08;;;;;;;21.13;19.10;;;19.70;99.90;;;-141.84;85.32;19537.44;5093666;28;20269;-60
2022/07/01 06:06:38;;;;;;;22.10;19.90;;;19.80;99.90;;;-141.84;86.20;19596.38;5092728;28;20231;-60
2022/07/01 06:09:06;;;;;;;22.40;20.20;;;19.90;99.90;;;-141.84;84.27;19665.47;5087632;28;20220;-60
2022/07/01 06:11:34;;;;;;;20.25;18.35;;;20.00;99.90;;;-141.84;85.68;19592.31;5071810;28;20319;-60
2022/07/01 06:14:02;;;;;;;21.80;19.73;;;20.20;99.90;;;-141.84;85.92;19596.38;5072182;28;20227;-60
2022/07/01 06:16:30;;;;;;;20.35;18.45;;;20.20;99.90;;;-141.84;83.48;19651.25;5072230;28;20303;-59
2022/07/01 06:18:59;;;;;;;21.30;19.27;;;20.30;99.90;;;-141.84;83.47;19700.03;5073183;28;20207;-60
2022/07/01 06:21:28;;;;;;;21.30;19.30;;;20.40;99.90;;;-141.84;82.91;19671.56;5072278;28;20254;-60
2022/07/01 06:23:58;;;;;;;20.63;18.50;;;20.50;99.90;;;-141.84;80.54;19726.44;5063498;28;20962;-59
2022/07/01 06:26:26;;;;;;;21.83;19.75;;;20.60;99.90;;;-141.84;81.07;19750.84;5060692;28;20713;-60
2022/07/01 06:28:54;;;;;;;21.20;19.15;;;20.70;99.90;;;-141.84;80.80;19708.16;5061760;28;20307;-60
2022/07/01 06:31:23;;;;;;;21.05;19.02;;;20.70;99.90;;;-141.84;81.57;19702.06;5059985;28;20212;-59
2022/07/01 06:33:52;;;;;;;20.50;18.45;;;20.50;99.90;;;-141.84;81.67;19649.22;5071923;28;20197;-60
2022/07/01 06:36:20;;;;;;;20.30;18.23;;;20.30;99.90;;;-141.84;84.05;19637.03;5071863;28;20462;-59
2022/07/01 06:38:48;;;;;;;20.92;18.92;;;20.20;99.90;;;-141.84;83.79;19567.94;5071408;28;20224;-59
2022/07/01 06:41:29;;;;;;;20.70;18.70;;;20.00;99.90;;;-141.84;82.97;19651.25;5072144;28;20234;-59
2022/07/01 06:44:00;;;;;;;20.80;18.83;;;20.00;99.90;;;-141.84;85.54;19557.78;5071888;28;20224;-59
2022/07/01 06:46:30;;;;;;;20.30;18.27;;;19.90;99.90;;;-141.84;83.42;19641.09;5079521;28;20215;-59
2022/07/01 06:48:59;;;;;;;18.73;16.92;;;20.00;99.90;;;-141.84;84.23;19614.66;5092416;28;20277;-58
2022/07/01 06:51:28;;;;;;;19.60;17.58;;;19.90;99.90;;;-141.84;84.02;19618.75;5092112;28;20334;-59
2022/07/01 06:53:56;;;;;;;18.60;16.77;;;19.80;99.90;;;-141.84;85.02;19602.47;5074167;28;20596;-59
2022/07/01 06:56:26;;;;;;;19.25;16.38;;;19.80;99.90;;;-141.84;84.07;19582.16;5071585;28;20225;-60
2022/07/01 06:58:54;;;;;;;16.77;15.07;;;19.90;99.90;;;-141.84;82.61;19645.16;5071577;28;20580;-60
2022/07/01 07:01:23;;;;;;;16.52;14.95;;;19.90;99.90;;;-141.84;82.67;19582.16;5071245;28;20278;-60
2022/07/01 07:03:51;;;;;;;14.65;13.10;;;19.80;99.90;;;-141.84;81.37;19628.91;5072094;28;20262;-59
2022/07/01 07:06:19;;;;;;;14.75;13.30;;;19.90;99.90;;;-141.84;82.58;19655.31;5071662;28;20232;-60
2022/07/01 07:08:48;;;;;;;13.55;12.27;;;19.90;99.90;;;-141.84;82.34;19612.63;5071245;28;20672;-60
2022/07/01 07:11:19;;;;;;;12.75;11.65;;;19.90;99.90;;;-141.84;82.28;19614.66;5071489;28;20311;-60
2022/07/01 07:13:48;;;;;;;12.35;11.25;;;19.90;99.90;;;-141.84;81.61;19643.13;5065232;28;20226;-59
2022/07/01 07:16:20;;;;;;;11.07;10.02;;;19.80;99.90;;;-141.84;80.91;19643.13;5065828;28;20300;-59
2022/07/01 07:18:49;;;;;;;11.10;10.10;;;20.00;99.90;;;-141.84;77.97;19708.16;5071901;28;20221;-59
2022/07/01 07:21:17;;;;;;;10.63;9.73;;;20.00;99.90;;;-141.84;75.88;19761.00;5070860;28;20623;-59
2022/07/01 07:23:45;;;;;;;10.68;9.68;;;20.20;99.90;;;-141.84;77.53;19734.56;5071087;28;20720;-59
2022/07/01 07:26:13;;;;;;;10.45;9.35;;;20.30;99.90;;;-141.84;79.41;19722.38;5071401;28;20594;-59
2022/07/01 07:28:42;;;;;;;9.07;8.20;;;20.30;99.90;;;-141.84;79.63;19645.16;5071013;28;20244;-59
2022/07/01 07:31:12;;;;;;;9.45;8.30;;;20.30;99.90;;;-141.84;80.18;19683.78;5071420;28;20208;-59
2022/07/01 07:33:41;;;;;;;9.10;8.20;;;20.10;99.90;;;-141.84;79.39;19641.09;5071270;28;20676;-59
2022/07/01 07:36:09;;;;;;;8.93;8.02;;;20.00;99.90;;;-141.84;79.77;19653.28;5070829;28;20855;-59
2022/07/01 07:38:38;;;;;;;8.02;7.22;;;19.90;99.90;;;-141.84;80.83;19606.53;5070807;28;20221;-59
2022/07/01 07:41:06;;;;;;;8.60;7.80;;;19.80;99.90;;;-141.84;82.31;19602.47;5070978;28;20247;-60
2022/07/01 07:43:34;;;;;;;8.77;7.97;;;19.70;99.90;;;-141.84;80.96;19653.28;5086309;28;20224;-60
2022/07/01 07:46:04;;;;;;;8.07;7.25;;;19.70;99.90;;;-141.84;82.13;19588.25;5085769;28;20687;-59
2022/07/01 07:48:34;;;;;;;7.97;7.25;;;19.40;99.90;;;-141.84;79.80;19622.81;5070532;28;20303;-60
2022/07/01 07:51:02;;;;;;;9.40;8.27;;;19.50;99.90;;;-141.84;81.49;19576.06;5070604;28;20239;-59
2022/07/01 07:53:30;;;;;;;8.55;7.75;;;19.40;99.90;;;-141.84;80.63;19596.38;5070850;28;20235;-59
2022/07/01 07:55:58;;;;;;;9.27;8.48;;;19.40;99.90;;;-141.84;80.89;19594.34;5070925;28;20220;-60
2022/07/01 07:58:26;;;;;;;9.35;8.15;;;19.30;99.90;;;-141.84;80.85;19610.59;5070822;28;20216;-59
2022/07/01 08:00:54;;;;;;;8.82;7.55;;;19.30;99.90;;;-141.84;80.18;19628.91;5071084;28;20564;-60
2022/07/01 08:03:22;;;;;;;8.05;7.35;;;19.30;99.90;;;-141.84;79.52;19618.75;5070369;28;20229;-60
2022/07/01 08:05:52;;;;;;;8.18;7.03;;;19.20;99.90;;;-141.84;82.26;19553.72;5070669;28;20327;-60
2022/07/01 08:08:20;;;;;;;7.95;7.25;;;19.00;99.90;;;-141.84;82.06;19539.47;5070572;28;20229;-60
2022/07/01 08:10:50;;;;;;;8.38;7.25;;;19.00;99.90;;;-141.84;82.84;19525.25;5070587;28;20224;-59
2022/07/01 08:13:18;;;;;;;7.68;6.97;;;18.90;99.90;;;-141.84;83.59;19531.34;5070358;28;20209;-60
2022/07/01 08:15:47;;;;;;;8.05;7.25;;;18.80;99.90;;;-141.84;84.96;19482.56;5070917;28;20201;-60
2022/07/01 08:18:15;;;;;;;7.75;6.80;;;18.70;99.90;;;-141.84;84.19;19498.84;5070683;28;20228;-60
2022/07/01 08:20:43;;;;;;;8.00;6.93;;;18.60;99.90;;;-141.84;85.84;19466.31;5070236;28;20399;-60
2022/07/01 08:23:12;;;;;;;8.73;7.93;;;18.60;99.90;;;-141.84;85.26;19482.56;5070547;28;20225;-59
2022/07/01 08:25:41;;;;;;;8.75;7.80;;;;;;;-141.84;86.67;19435.84;5069144;28;20220;-59
2022/07/01 08:28:09;;;;;;;9.13;8.32;;;;;;;-141.84;87.58;19415.50;5070697;28;20197;-60
2022/07/01 08:30:38;;;;;;;10.20;9.20;;;18.60;99.90;;;-141.84;88.16;19415.50;5068878;28;20766;-60
2022/07/01 08:33:06;;;;;;;10.40;9.40;;;18.40;99.90;;;-141.84;89.92;19385.03;5069296;28;20303;-60
2022/07/01 08:35:34;;;;;;;11.05;10.02;;;18.30;99.90;;;-141.84;88.84;19395.19;5070189;28;20250;-59
2022/07/01 08:38:03;;;;;;;11.38;10.32;;;18.20;99.90;;;-141.84;88.14;19374.88;5074139;28;20299;-59
2022/07/01 08:40:34;;;;;;;11.50;10.23;;;18.20;99.90;;;-141.84;89.05;19366.75;5075304;28;20204;-60
2022/07/01 08:43:05;;;;;;;11.98;10.75;;;18.10;99.90;;;-141.84;87.60;19383.00;5074994;28;20197;-58
2022/07/01 08:45:35;;;;;;;11.85;10.65;;;18.10;99.90;;;-141.84;88.63;19368.78;5071653;28;20228;-59
2022/07/01 08:48:06;;;;;;;11.73;10.60;;;18.10;99.90;;;-141.84;88.43;19383.00;5052729;28;20233;-60
2022/07/01 08:50:38;;;;;;;12.07;10.88;;;18.20;99.90;;;-141.84;87.82;19417.56;5052333;28;20249;-59
2022/07/01 08:53:09;;;;;;;11.00;9.90;;;18.10;99.90;;;-141.84;87.42;19397.22;5052631;28;20760;-58
2022/07/01 08:58:22;;;;;;;12.30;11.20;;;18.00;99.90;;;-141.84;91.33;19340.31;5051957;28;20227;-60
2022/07/01 09:00:50;;;;;;;12.52;11.27;;;18.00;99.90;;;-141.84;91.40;19322.03;5054253;28;20529;-59
2022/07/01 09:03:22;;;;;;;12.63;11.43;;;18.00;99.90;;;-141.84;91.71;19330.16;5051840;28;20233;-59
2022/07/01 09:05:54;;;;;;;13.35;12.15;;;18.10;99.90;;;-141.84;91.39;19322.03;5051315;28;20233;-59
2022/07/01 09:08:28;;;;;;;13.38;12.05;;;18.00;99.90;;;-141.84;91.70;19303.75;5052416;28;20627;-59
2022/07/01 09:11:12;;;;;;;13.80;12.57;;;18.00;99.90;;;-141.84;91.57;19317.97;5052802;28;20604;-59
2022/07/01 09:13:40;;;;;;;14.77;13.38;;;18.00;99.90;;;-141.84;90.91;19328.13;5052804;28;20217;-60
2022/07/01 09:16:14;;;;;;;13.25;11.85;;;18.20;99.90;;;-141.84;89.17;19342.34;5054217;28;20553;-59
2022/07/01 09:19:00;;;;;;;13.60;11.95;;;18.20;99.90;;;-141.84;89.87;19348.47;5050908;28;20213;-59
2022/07/01 09:21:30;;;;;;;14.30;11.90;;;18.10;99.90;;;-141.84;89.45;19322.03;5051561;28;20267;-59
2022/07/01 09:24:00;;;;;;;14.35;12.70;;;18.00;99.90;;;-141.84;91.08;19334.22;5052547;28;20738;-59
2022/07/01 09:26:30;;;;;;;14.00;12.55;;;18.00;99.90;;;-141.84;92.25;19311.88;5051316;28;20732;-58
2022/07/01 09:28:59;;;;;;;15.40;13.88;;;;;;;-141.84;92.37;19326.09;5071002;28;20228;-60
2022/07/01 09:31:34;;;;;;;15.23;13.63;;;17.70;99.90;;;-141.84;90.16;19291.56;5071905;28;20647;-61
2022/07/01 09:34:07;;;;;;;15.10;13.73;;;17.60;99.90;;;-141.84;91.23;19269.22;5073894;28;20181;-60
2022/07/01 09:36:40;;;;;;;16.52;14.82;;;17.60;99.90;;;-141.84;93.39;19248.88;5092214;28;20254;-61
2022/07/01 09:39:08;;;;;;;17.23;15.50;;;17.60;99.90;;;-141.84;95.06;19220.44;5086388;28;20234;-60
2022/07/01 09:41:58;;;;;;;17.27;15.57;;;17.50;99.90;;;-141.84;93.08;19240.75;5071539;28;20232;-60
2022/07/01 09:44:28;;;;;;;17.50;15.70;;;17.40;99.90;;;-141.84;93.20;19212.31;5071723;28;20233;-60
2022/07/01 09:46:58;;;;;;;17.25;15.52;;;17.40;99.90;;;-141.84;93.06;19214.34;5057839;28;20713;-63
2022/07/01 09:49:26;;;;;;;16.67;14.93;;;17.40;99.90;;;-141.84;94.50;19192.00;5052278;28;20193;-60
2022/07/01 09:51:55;;;;;;;19.10;17.10;;;;;;;-141.84;94.83;19232.63;5053573;28;20197;-61
2022/07/01 09:54:23;;;;;;;17.83;16.08;;;;;;;-141.84;94.27;19212.31;5051555;28;20796;-64
2022/07/01 09:56:51;;;;;;;18.80;16.80;;;17.40;99.90;;;-141.84;92.53;19230.59;5051415;28;20283;-60
2022/07/01 09:59:21;;;;;;;16.30;14.70;;;;;;;-141.84;92.67;19277.34;5051967;28;20225;-64
2022/07/01 10:01:49;;;;;;;16.10;14.60;;;17.40;99.90;;;-141.84;92.97;19244.81;5051496;28;20221;-60
2022/07/01 10:04:19;;;;;;;16.75;15.15;;;17.50;99.90;;;-141.84;93.88;19204.19;5050661;28;20316;-60
2022/07/01 10:07:28;;;;;;;16.88;15.15;;;17.40;99.90;;;-141.84;94.18;19198.09;5052839;28;20665;-59
2022/07/01 10:10:28;;;;;;;16.60;13.95;;;17.40;99.90;;;-141.84;94.83;19200.13;5062291;28;20231;-61
2022/07/01 10:13:00;;;;;;;15.65;13.90;;;17.40;99.90;;;-141.84;94.72;19204.19;5071171;28;20227;-59
2022/07/01 10:15:30;;;;;;;15.52;13.10;;;17.50;99.90;;;-141.84;93.74;19218.41;5071080;28;20224;-59
2022/07/01 10:17:58;;;;;;;14.35;12.82;;;17.40;99.90;;;-141.84;94.25;19216.38;5071111;28;20224;-60
2022/07/01 10:20:29;;;;;;;13.20;11.48;;;17.50;99.90;;;-141.84;93.24;19212.31;5070963;28;20285;-60
2022/07/01 10:23:07;;;;;;;12.65;11.45;;;17.30;99.90;;;-141.84;94.33;19220.44;5070807;28;20301;-60
2022/07/01 10:25:41;;;;;;;13.82;12.50;;;;;;;-141.84;94.10;19226.53;5061557;28;20224;-61